createdAt,value
2023-04-02T00:01:38.282Z,101327.19
2023-04-02T00:04:06.569Z,101319.19
2023-04-02T00:06:34.214Z,101325.44
2023-04-02T00:09:20.273Z,101336.72
2023-04-02T00:11:48.243Z,101337.50
2023-04-02T00:14:25.342Z,101350.75
2023-04-02T00:16:53.120Z,101353.34
2023-04-02T00:19:32.192Z,101351.66
2023-04-02T00:21:58.671Z,101350.66
2023-04-02T00:24:25.062Z,101354.31
2023-04-02T00:26:52.352Z,101347.31
2023-04-02T00:29:18.999Z,101363.97
2023-04-02T00:31:47.708Z,101369.06
2023-04-02T00:34:20.864Z,101365.50
2023-04-02T00:36:47.646Z,101367.22
2023-04-02T00:39:25.784Z,101367.34
2023-04-02T00:41:53.311Z,101371.66
2023-04-02T00:44:19.722Z,101386.44
2023-04-02T00:46:46.138Z,101384.75
2023-04-02T00:49:22.821Z,101392.66
2023-04-02T00:52:00.527Z,101400.50
2023-04-02T00:54:29.075Z,101398.91
2023-04-02T00:56:55.805Z,101412.03
2023-04-02T00:59:32.226Z,101416.44
2023-04-02T01:02:13.933Z,101420.69
2023-04-02T01:04:40.310Z,101427.72
2023-04-02T01:07:09.446Z,101430.31
2023-04-02T01:10:00.227Z,101423.44
2023-04-02T01:12:48.531Z,101428.75
2023-04-02T01:15:14.916Z,101437.38
2023-04-02T01:17:48.324Z,101429.44
2023-04-02T01:20:43.554Z,101434.03
2023-04-02T01:23:34.778Z,101429.59
2023-04-02T01:26:12.008Z,101439.22
2023-04-02T01:28:47.489Z,101441.00
2023-04-02T01:31:13.923Z,101435.09
2023-04-02T01:33:40.316Z,101448.25
2023-04-02T01:36:10.156Z,101454.34
2023-04-02T01:39:09.767Z,101454.44
2023-04-02T01:41:38.316Z,101457.94
2023-04-02T01:44:17.261Z,101467.59
2023-04-02T01:46:43.793Z,101475.44
2023-04-02T01:49:19.608Z,101481.63
2023-04-02T01:51:47.031Z,101489.50
2023-04-02T01:54:13.982Z,101492.16
2023-04-02T01:56:40.431Z,101491.94
2023-04-02T01:59:06.858Z,101498.84
2023-04-02T02:01:46.081Z,101497.28
2023-04-02T02:04:12.617Z,101504.22
2023-04-02T02:06:39.129Z,101506.78
2023-04-02T02:09:06.272Z,101506.75
2023-04-02T02:11:33.128Z,101516.38
2023-04-02T02:14:01.099Z,101512.97
2023-04-02T02:16:28.789Z,101522.63
2023-04-02T02:18:57.800Z,101526.94
2023-04-02T02:21:39.273Z,101530.41
2023-04-02T02:24:07.689Z,101525.03
2023-04-02T02:26:34.076Z,101535.50
2023-04-02T02:29:00.587Z,101545.22
2023-04-02T02:31:30.957Z,101539.94
2023-04-02T02:34:02.896Z,101541.66
2023-04-02T02:36:47.652Z,101539.78
2023-04-02T02:39:17.812Z,101551.19
2023-04-02T02:41:50.637Z,101554.59
2023-04-02T02:44:31.500Z,101557.25
2023-04-02T02:47:04.748Z,101559.06
2023-04-02T02:49:33.025Z,101568.69
2023-04-02T02:52:20.436Z,101569.59
2023-04-02T02:54:49.297Z,101570.44
2023-04-02T02:57:22.036Z,101569.53
2023-04-02T02:59:48.614Z,101584.28
2023-04-02T03:02:15.222Z,101585.22
2023-04-02T03:04:41.683Z,101588.66
2023-04-02T03:07:08.229Z,101594.09
2023-04-02T03:09:44.361Z,101604.53
2023-04-02T03:12:29.471Z,101605.31
2023-04-02T03:15:02.486Z,101607.84
2023-04-02T03:17:39.344Z,101610.47
2023-04-02T03:20:41.187Z,101624.47
2023-04-02T03:23:22.378Z,101617.44
2023-04-02T03:25:57.715Z,101624.50
2023-04-02T03:28:27.489Z,101634.91
2023-04-02T03:31:00.047Z,101632.25
2023-04-02T03:33:56.777Z,101644.53
2023-04-02T03:36:31.339Z,101639.41
2023-04-02T03:39:12.158Z,101647.28
2023-04-02T03:41:41.674Z,101663.78
2023-04-02T03:44:17.270Z,101659.28
2023-04-02T03:46:53.522Z,101666.28
2023-04-02T03:49:43.929Z,101663.63
2023-04-02T03:52:22.972Z,101664.84
2023-04-02T03:54:53.340Z,101677.94
2023-04-02T03:57:32.029Z,101680.56
2023-04-02T04:00:21.070Z,101689.28
2023-04-02T04:03:11.840Z,101683.13
2023-04-02T04:05:43.891Z,101684.19
2023-04-02T04:08:16.208Z,101701.66
2023-04-02T04:10:42.839Z,101710.22
2023-04-02T04:13:15.199Z,101705.91
2023-04-02T04:16:04.638Z,101706.94
2023-04-02T04:18:47.103Z,101720.13
2023-04-02T04:21:27.473Z,101714.88
2023-04-02T04:23:53.922Z,101723.53
2023-04-02T04:26:23.874Z,101724.25
2023-04-02T04:28:56.184Z,101728.63
2023-04-02T04:31:36.413Z,101734.78
2023-04-02T04:34:11.914Z,101735.63
2023-04-02T04:36:47.465Z,101747.88
2023-04-02T04:39:17.479Z,101753.19
2023-04-02T04:41:43.814Z,101754.97
2023-04-02T04:44:41.996Z,101751.41
2023-04-02T04:47:12.012Z,101757.56
2023-04-02T04:49:44.262Z,101766.25
2023-04-02T04:52:29.452Z,101770.50
2023-04-02T04:54:55.896Z,101775.06
2023-04-02T04:57:36.136Z,101785.69
2023-04-02T05:00:30.666Z,101784.06
2023-04-02T05:03:28.616Z,101798.19
2023-04-02T05:05:58.246Z,101800.13
2023-04-02T05:08:26.692Z,101803.81
2023-04-02T05:10:56.248Z,101806.66
2023-04-02T05:13:53.381Z,101812.00
2023-04-02T05:16:31.470Z,101826.97
2023-04-02T05:18:57.798Z,101822.69
2023-04-02T05:21:37.321Z,101831.63
2023-04-02T05:24:58.088Z,101831.66
2023-04-02T05:27:29.360Z,101825.53
2023-04-02T05:30:00.699Z,101836.13
2023-04-02T05:32:30.445Z,101838.69
2023-04-02T05:34:56.927Z,101845.75
2023-04-02T05:37:24.606Z,101846.84
2023-04-02T05:39:54.455Z,101849.56
2023-04-02T05:42:25.780Z,101858.50
2023-04-02T05:45:01.331Z,101853.31
2023-04-02T05:47:29.510Z,101855.09
2023-04-02T05:50:04.928Z,101851.59
2023-04-02T05:52:34.066Z,101858.81
2023-04-02T05:55:12.350Z,101859.72
2023-04-02T05:58:04.282Z,101872.03
2023-04-02T06:00:39.798Z,101872.09
2023-04-02T06:03:25.936Z,101868.66
2023-04-02T06:05:52.647Z,101874.84
2023-04-02T06:08:30.303Z,101874.91
2023-04-02T06:11:40.200Z,101881.09
2023-04-02T06:14:06.648Z,101882.94
2023-04-02T06:16:33.115Z,101893.41
2023-04-02T06:18:59.582Z,101898.78
2023-04-02T06:21:26.021Z,101895.50
2023-04-02T06:23:56.904Z,101895.59
2023-04-02T06:26:38.046Z,101905.53
2023-04-02T06:29:23.270Z,101907.25
2023-04-02T06:32:08.652Z,101918.59
2023-04-02T06:34:36.579Z,101922.94
2023-04-02T06:37:23.854Z,101922.16
2023-04-02T06:39:50.275Z,101938.91
2023-04-02T06:42:22.216Z,101934.56
2023-04-02T06:44:48.850Z,101938.09
2023-04-02T06:47:27.002Z,101939.97
2023-04-02T06:50:12.604Z,101945.53
2023-04-02T06:52:48.597Z,101952.66
2023-04-02T06:55:24.675Z,101960.66
2023-04-02T06:57:51.085Z,101958.19
2023-04-02T07:00:34.127Z,101963.50
2023-04-02T07:03:00.805Z,101959.13
2023-04-02T07:05:27.221Z,101969.13
2023-04-02T07:07:53.613Z,101970.97
2023-04-02T07:10:20.149Z,101969.28
2023-04-02T07:12:46.831Z,101981.69
2023-04-02T07:15:16.811Z,101985.38
2023-04-02T07:17:43.688Z,101994.22
2023-04-02T07:20:40.854Z,101988.94
2023-04-02T07:23:07.271Z,101987.03
2023-04-02T07:25:33.961Z,102000.38
2023-04-02T07:28:00.548Z,102004.78
2023-04-02T07:30:26.989Z,102008.47
2023-04-02T07:32:53.551Z,102019.97
2023-04-02T07:35:19.990Z,102014.72
2023-04-02T07:37:46.455Z,102015.59
2023-04-02T07:40:17.406Z,102032.38
2023-04-02T07:42:44.352Z,102024.53
2023-04-02T07:45:11.040Z,102027.38
2023-04-02T07:47:37.499Z,102028.38
2023-04-02T07:50:04.154Z,102034.66
2023-04-02T07:52:30.590Z,102040.97
2023-04-02T07:54:57.012Z,102043.63
2023-04-02T07:57:23.470Z,102049.06
2023-04-02T07:59:49.898Z,102057.00
2023-04-02T08:02:19.894Z,102056.19
2023-04-02T08:04:46.344Z,102060.63
2023-04-02T08:07:12.766Z,102061.41
2023-04-02T08:09:39.167Z,102060.59
2023-04-02T08:12:05.790Z,102064.16
2023-04-02T08:14:32.216Z,102066.75
2023-04-02T08:16:58.911Z,102069.31
2023-04-02T08:19:25.424Z,102072.78
2023-04-02T08:21:51.829Z,102079.69
2023-04-02T08:24:18.641Z,102084.97
2023-04-02T08:26:45.895Z,102095.44
2023-04-02T08:29:12.396Z,102091.91
2023-04-02T08:31:38.803Z,102097.25
2023-04-02T08:34:05.219Z,102094.56
2023-04-02T08:36:35.752Z,102097.94
2023-04-02T08:39:02.570Z,102105.00
2023-04-02T08:41:29.047Z,102103.34
2023-04-02T08:44:08.013Z,102107.34
2023-04-02T08:46:48.193Z,102114.03
2023-04-02T08:49:16.627Z,102109.91
2023-04-02T08:51:43.110Z,102113.69
2023-04-02T08:54:21.731Z,102120.13
2023-04-02T08:57:13.923Z,102125.56
2023-04-02T08:59:41.145Z,102127.41
2023-04-02T09:02:26.107Z,102133.66
2023-04-02T09:04:52.795Z,102128.38
2023-04-02T09:07:19.318Z,102136.38
2023-04-02T09:09:48.835Z,102140.81
2023-04-02T09:12:33.482Z,102152.28
2023-04-02T09:15:05.785Z,102150.38
2023-04-02T09:17:42.657Z,102160.94
2023-04-02T09:20:29.271Z,102157.25
2023-04-02T09:22:57.025Z,102172.13
2023-04-02T09:25:25.640Z,102174.13
2023-04-02T09:27:53.183Z,102166.38
2023-04-02T09:30:25.155Z,102171.59
2023-04-02T09:32:53.885Z,102176.94
2023-04-02T09:35:26.844Z,102174.47
2023-04-02T09:38:22.922Z,102180.81
2023-04-02T09:40:58.411Z,102180.03
2023-04-02T09:43:26.297Z,102186.25
2023-04-02T09:46:16.298Z,102185.38
2023-04-02T09:48:53.423Z,102190.72
2023-04-02T09:51:21.806Z,102195.16
2023-04-02T09:53:49.656Z,102184.53
2023-04-02T09:56:20.590Z,102191.63
2023-04-02T09:59:04.902Z,102191.63
2023-04-02T10:01:39.245Z,102193.38
2023-04-02T10:04:16.877Z,102207.56
2023-04-02T10:06:49.214Z,102204.00
2023-04-02T10:09:21.274Z,102203.97
2023-04-02T10:11:47.676Z,102211.03
2023-04-02T10:14:18.271Z,102219.91
2023-04-02T10:16:53.611Z,102219.94
2023-04-02T10:19:37.695Z,102220.81
2023-04-02T10:22:06.612Z,102221.72
2023-04-02T10:24:33.061Z,102221.72
2023-04-02T10:27:19.627Z,102231.50
2023-04-02T10:30:09.104Z,102234.16
2023-04-02T10:32:48.719Z,102252.75
2023-04-02T10:35:18.150Z,102255.44
2023-04-02T10:37:51.629Z,102263.41
2023-04-02T10:40:34.985Z,102262.53
2023-04-02T10:43:01.292Z,102256.28
2023-04-02T10:45:33.961Z,102262.50
2023-04-02T10:48:32.844Z,102273.16
2023-04-02T10:51:29.418Z,102276.72
2023-04-02T10:54:24.573Z,102280.25
2023-04-02T10:56:51.516Z,102286.47
2023-04-02T10:59:29.523Z,102286.41
2023-04-02T11:01:56.770Z,102279.31
2023-04-02T11:04:35.861Z,102292.59
2023-04-02T11:07:14.607Z,102283.78
2023-04-02T11:09:42.634Z,102297.94
2023-04-02T11:12:15.750Z,102298.84
2023-04-02T11:14:42.185Z,102290.03
2023-04-02T11:17:19.008Z,102296.22
2023-04-02T11:19:45.515Z,102302.47
2023-04-02T11:22:20.719Z,102298.94
2023-04-02T11:24:53.656Z,102306.94
2023-04-02T11:27:30.179Z,102316.69
2023-04-02T11:30:24.052Z,102313.16
2023-04-02T11:32:50.617Z,102314.03
2023-04-02T11:35:24.284Z,102330.00
2023-04-02T11:37:50.827Z,102335.31
2023-04-02T11:40:17.103Z,102333.56
2023-04-02T11:42:47.683Z,102326.47
2023-04-02T11:45:20.930Z,102327.34
2023-04-02T11:47:59.651Z,102335.34
2023-04-02T11:50:35.977Z,102337.97
2023-04-02T11:53:02.999Z,102338.84
2023-04-02T11:55:31.764Z,102344.09
2023-04-02T11:58:10.239Z,102331.66
2023-04-02T12:00:54.196Z,102339.69
2023-04-02T12:03:42.543Z,102350.31
2023-04-02T12:06:18.192Z,102356.50
2023-04-02T12:08:59.839Z,102355.50
2023-04-02T12:11:33.668Z,102355.44
2023-04-02T12:14:00.331Z,102363.34
2023-04-02T12:16:26.749Z,102379.34
2023-04-02T12:18:53.296Z,102366.88
2023-04-02T12:21:21.764Z,102371.34
2023-04-02T12:23:48.325Z,102383.06
2023-04-02T12:26:28.140Z,102390.13
2023-04-02T12:28:54.689Z,102382.06
2023-04-02T12:31:21.672Z,102383.78
2023-04-02T12:33:51.545Z,102385.53
2023-04-02T12:36:22.572Z,102376.72
2023-04-02T12:38:53.491Z,102373.19
2023-04-02T12:41:27.672Z,102370.47
2023-04-02T12:44:01.601Z,102377.63
2023-04-02T12:46:29.071Z,102380.22
2023-04-02T12:49:07.373Z,102377.31
2023-04-02T12:51:35.429Z,102376.25
2023-04-02T12:54:01.966Z,102369.03
2023-04-02T12:56:28.515Z,102384.06
2023-04-02T12:59:01.186Z,102382.22
2023-04-02T13:01:28.902Z,102378.75
2023-04-02T13:04:11.754Z,102389.38
2023-04-02T13:06:39.394Z,102387.75
2023-04-02T13:09:07.247Z,102394.94
2023-04-02T13:11:35.449Z,102390.41
2023-04-02T13:14:02.741Z,102397.56
2023-04-02T13:16:34.800Z,102404.69
2023-04-02T13:19:25.884Z,102410.06
2023-04-02T13:21:52.800Z,102405.44
2023-04-02T13:24:21.339Z,102398.91
2023-04-02T13:26:48.290Z,102409.28
2023-04-02T13:29:17.507Z,102398.69
2023-04-02T13:31:44.100Z,102409.16
2023-04-02T13:34:10.775Z,102408.63
2023-04-02T13:36:37.316Z,102404.25
2023-04-02T13:39:03.979Z,102403.19
2023-04-02T13:41:32.170Z,102412.09
2023-04-02T13:44:00.762Z,102402.78
2023-04-02T13:46:29.299Z,102410.16
2023-04-02T13:48:56.010Z,102416.06
2023-04-02T13:51:36.388Z,102411.06
2023-04-02T13:54:02.935Z,102415.84
2023-04-02T13:56:29.422Z,102421.63
2023-04-02T13:58:55.938Z,102411.31
2023-04-02T14:01:22.570Z,102413.22
2023-04-02T14:03:49.117Z,102422.31
2023-04-02T14:06:43.776Z,102429.13
2023-04-02T14:09:19.337Z,102420.09
2023-04-02T14:11:54.840Z,102428.91
2023-04-02T14:14:23.964Z,102426.50
2023-04-02T14:17:03.564Z,102420.75
2023-04-02T14:20:07.042Z,102425.25
2023-04-02T14:22:40.447Z,102418.53
2023-04-02T14:25:25.368Z,102425.44
2023-04-02T14:28:39.927Z,102438.72
2023-04-02T14:31:27.516Z,102428.81
2023-04-02T14:34:12.753Z,102437.63
2023-04-02T14:37:00.364Z,102448.00
2023-04-02T14:39:34.928Z,102435.03
2023-04-02T14:42:21.397Z,102448.41
2023-04-02T14:45:02.254Z,102456.84
2023-04-02T14:47:39.730Z,102456.50
2023-04-02T14:50:15.538Z,102457.88
2023-04-02T14:52:42.707Z,102474.34
2023-04-02T14:55:34.436Z,102468.69
2023-04-02T14:58:02.538Z,102480.03
2023-04-02T15:00:35.162Z,102481.34
2023-04-02T15:03:23.915Z,102464.53
2023-04-02T15:05:57.443Z,102479.91
2023-04-02T15:08:27.783Z,102486.50
2023-04-02T15:10:56.190Z,102479.38
2023-04-02T15:13:30.637Z,102483.88
2023-04-02T15:16:00.655Z,102480.50
2023-04-02T15:18:27.208Z,102494.88
2023-04-02T15:21:14.357Z,102475.56
2023-04-02T15:23:59.948Z,102488.25
2023-04-02T15:26:45.393Z,102485.25
2023-04-02T15:29:52.426Z,102497.84
2023-04-02T15:32:34.048Z,102507.50
2023-04-02T15:35:20.301Z,102507.59
2023-04-02T15:38:12.073Z,102510.94
2023-04-02T15:40:55.366Z,102515.13
2023-04-02T15:43:43.536Z,102511.31
2023-04-02T15:46:23.078Z,102507.91
2023-04-02T15:49:14.536Z,102517.56
2023-04-02T15:52:01.795Z,102519.41
2023-04-02T15:54:37.432Z,102522.88
2023-04-02T15:57:25.599Z,102535.25
2023-04-02T16:00:12.201Z,102530.16
2023-04-02T16:02:50.931Z,102534.63
2023-04-02T16:05:58.672Z,102524.06
2023-04-02T16:09:03.411Z,102541.03
2023-04-02T16:11:30.078Z,102538.09
2023-04-02T16:14:10.418Z,102543.78
2023-04-02T16:16:37.930Z,102552.56
2023-04-02T16:19:35.096Z,102551.34
2023-04-02T16:22:23.451Z,102546.06
2023-04-02T16:24:53.714Z,102555.31
2023-04-02T16:27:35.788Z,102559.06
2023-04-02T16:30:29.736Z,102572.44
2023-04-02T16:33:14.752Z,102575.88
2023-04-02T16:36:04.504Z,102578.53
2023-04-02T16:39:08.608Z,102574.84
2023-04-02T16:42:04.432Z,102588.75
2023-04-02T16:45:06.471Z,102593.06
2023-04-02T16:47:54.106Z,102593.59
2023-04-02T16:50:54.123Z,102601.31
2023-04-02T16:54:01.433Z,102602.00
2023-04-02T16:56:31.429Z,102616.00
2023-04-02T16:59:03.841Z,102618.53
2023-04-02T17:01:41.622Z,102632.53
2023-04-02T17:04:35.302Z,102635.97
2023-04-02T17:07:14.899Z,102642.78
2023-04-02T17:09:51.026Z,102648.88
2023-04-02T17:12:31.057Z,102648.69
2023-04-02T17:15:27.789Z,102649.38
2023-04-02T17:17:57.660Z,102661.53
2023-04-02T17:20:24.440Z,102662.44
2023-04-02T17:22:51.043Z,102665.72
2023-04-02T17:25:39.496Z,102670.09
2023-04-02T17:28:06.004Z,102678.88
2023-04-02T17:30:39.028Z,102681.34
2023-04-02T17:33:12.869Z,102690.00
2023-04-02T17:36:10.540Z,102689.94
2023-04-02T17:38:45.492Z,102696.13
2023-04-02T17:41:34.498Z,102700.31
2023-04-02T17:44:08.087Z,102702.91
2023-04-02T17:46:39.212Z,102703.66
2023-04-02T17:49:22.210Z,102707.94
2023-04-02T17:51:55.291Z,102728.09
2023-04-02T17:54:29.489Z,102719.16
2023-04-02T17:57:27.015Z,102727.84
2023-04-02T18:00:10.319Z,102727.69
2023-04-02T18:03:10.251Z,102736.44
2023-04-02T18:05:48.000Z,102745.91
2023-04-02T18:08:20.380Z,102752.91
2023-04-02T18:10:52.999Z,102758.94
2023-04-02T18:13:33.319Z,102761.41
2023-04-02T18:15:59.733Z,102765.94
2023-04-02T18:18:38.959Z,102759.81
2023-04-02T18:21:23.671Z,102770.28
2023-04-02T18:24:11.922Z,102769.06
2023-04-02T18:26:50.563Z,102774.22
2023-04-02T18:29:34.828Z,102768.78
2023-04-02T18:32:31.749Z,102773.88
2023-04-02T18:35:20.163Z,102785.13
2023-04-02T18:38:06.302Z,102788.56
2023-04-02T18:41:00.594Z,102796.50
2023-04-02T18:43:42.122Z,102798.19
2023-04-02T18:46:17.800Z,102799.72
2023-04-02T18:49:02.783Z,102801.28
2023-04-02T18:51:32.233Z,102800.38
2023-04-02T18:54:17.608Z,102804.16
2023-04-02T18:56:44.455Z,102810.16
2023-04-02T18:59:32.282Z,102812.78
2023-04-02T19:01:58.842Z,102823.22
2023-04-02T19:04:32.251Z,102815.91
2023-04-02T19:07:06.018Z,102829.84
2023-04-02T19:09:36.440Z,102837.78
2023-04-02T19:12:15.929Z,102835.69
2023-04-02T19:14:42.539Z,102847.06
2023-04-02T19:17:22.283Z,102852.97
2023-04-02T19:20:01.003Z,102846.75
2023-04-02T19:22:33.404Z,102857.94
2023-04-02T19:24:59.818Z,102846.66
2023-04-02T19:27:48.772Z,102851.13
2023-04-02T19:30:37.117Z,102858.94
2023-04-02T19:33:09.391Z,102863.97
2023-04-02T19:35:38.819Z,102859.38
2023-04-02T19:38:39.211Z,102871.56
2023-04-02T19:41:26.726Z,102867.69
2023-04-02T19:43:53.624Z,102863.00
2023-04-02T19:46:20.153Z,102861.16
2023-04-02T19:49:11.236Z,102866.16
2023-04-02T19:51:37.776Z,102873.91
2023-04-02T19:54:04.496Z,102876.34
2023-04-02T19:56:31.091Z,102878.16
2023-04-02T19:58:58.306Z,102873.06
2023-04-02T20:01:26.730Z,102874.69
2023-04-02T20:03:53.272Z,102880.25
2023-04-02T20:06:19.838Z,102878.44
2023-04-02T20:08:46.344Z,102882.66
2023-04-02T20:11:12.863Z,102882.75
2023-04-02T20:13:39.438Z,102885.56
2023-04-02T20:16:06.089Z,102885.53
2023-04-02T20:18:32.600Z,102892.41
2023-04-02T20:20:59.389Z,102886.25
2023-04-02T20:23:25.989Z,102891.69
2023-04-02T20:25:54.905Z,102903.75
2023-04-02T20:28:22.087Z,102900.13
2023-04-02T20:30:48.632Z,102901.00
2023-04-02T20:33:16.606Z,102916.00
2023-04-02T20:35:43.226Z,102917.59
2023-04-02T20:38:09.959Z,102917.50
2023-04-02T20:40:36.699Z,102924.47
2023-04-02T20:43:03.429Z,102929.78
2023-04-02T20:45:29.939Z,102924.56
2023-04-02T20:47:56.480Z,102931.47
2023-04-02T20:50:23.291Z,102932.00
2023-04-02T20:52:49.874Z,102934.28
2023-04-02T20:55:16.454Z,102937.72
2023-04-02T20:57:42.996Z,102935.25
2023-04-02T21:00:10.218Z,102941.59
2023-04-02T21:02:36.851Z,102950.22
2023-04-02T21:05:03.614Z,102949.56
2023-04-02T21:07:30.254Z,102952.16
2023-04-02T21:09:56.812Z,102952.22
2023-04-02T21:12:23.321Z,102955.59
2023-04-02T21:14:49.867Z,102965.09
2023-04-02T21:17:16.393Z,102963.22
2023-04-02T21:19:42.911Z,102969.19
2023-04-02T21:22:09.405Z,102970.69
2023-04-02T21:24:35.940Z,102974.34
2023-04-02T21:27:02.483Z,102982.25
2023-04-02T21:29:29.015Z,102984.84
2023-04-02T21:31:55.687Z,102980.22
2023-04-02T21:34:22.233Z,102987.84
2023-04-02T21:36:48.885Z,102990.38
2023-04-02T21:39:20.886Z,102986.78
2023-04-02T21:41:48.363Z,102988.50
2023-04-02T21:44:15.187Z,102988.56
2023-04-02T21:46:41.862Z,102994.69
2023-04-02T21:49:08.664Z,102995.31
2023-04-02T21:51:36.185Z,102997.19
2023-04-02T21:54:02.707Z,102995.41
2023-04-02T21:56:30.830Z,102988.19
2023-04-02T21:58:57.611Z,102995.69
2023-04-02T22:01:27.569Z,103002.50
2023-04-02T22:03:55.312Z,103002.28
2023-04-02T22:06:22.258Z,103000.38
2023-04-02T22:08:55.866Z,102996.69
2023-04-02T22:11:24.432Z,102988.53
2023-04-02T22:13:51.067Z,102982.16
2023-04-02T22:16:21.906Z,102981.03
2023-04-02T22:18:48.841Z,102990.34
2023-04-02T22:21:15.520Z,102992.03
2023-04-02T22:23:42.206Z,103005.06
2023-04-02T22:26:13.873Z,103001.47
2023-04-02T22:28:40.483Z,103004.94
2023-04-02T22:31:14.995Z,103007.56
2023-04-02T22:33:41.838Z,103018.94
2023-04-02T22:36:08.439Z,103018.94
2023-04-02T22:38:35.148Z,103023.13
2023-04-02T22:41:18.736Z,103029.78
2023-04-02T22:43:45.467Z,103034.06
2023-04-02T22:46:13.342Z,103035.78
2023-04-02T22:48:39.958Z,103034.69
2023-04-02T22:51:10.138Z,103031.97
2023-04-02T22:53:36.744Z,103040.69
2023-04-02T22:56:06.206Z,103045.03
2023-04-02T22:58:33.024Z,103046.78
2023-04-02T23:01:04.742Z,103051.13
2023-04-02T23:03:31.290Z,103049.28
2023-04-02T23:06:01.830Z,103051.75
2023-04-02T23:08:28.373Z,103042.91
2023-04-02T23:11:05.939Z,103053.44
2023-04-02T23:13:32.708Z,103052.50
2023-04-02T23:16:02.398Z,103056.66
2023-04-02T23:18:31.305Z,103061.91
2023-04-02T23:20:57.850Z,103058.31
2023-04-02T23:23:24.370Z,103066.19
2023-04-02T23:25:50.892Z,103067.03
2023-04-02T23:28:17.557Z,103072.34
2023-04-02T23:30:44.142Z,103073.16
2023-04-02T23:33:10.655Z,103079.25
2023-04-02T23:35:37.194Z,103081.03
2023-04-02T23:38:03.739Z,103080.16
2023-04-02T23:40:30.265Z,103086.22
2023-04-02T23:42:56.767Z,103084.44
2023-04-02T23:45:23.297Z,103082.41
2023-04-02T23:47:49.834Z,103084.88
2023-04-02T23:50:16.469Z,103088.09
2023-04-02T23:52:42.957Z,103093.44
2023-04-02T23:55:09.723Z,103089.84
2023-04-02T23:57:36.507Z,103092.34
